createdAt,value
2023-03-27T00:00:42.088Z,999.42
2023-03-27T00:01:42.111Z,999.46
2023-03-27T00:02:42.212Z,999.47
2023-03-27T00:03:42.088Z,999.51
2023-03-27T00:04:42.042Z,999.50
2023-03-27T00:05:42.019Z,999.50
2023-03-27T00:06:42.013Z,999.50
2023-03-27T00:07:42.028Z,999.52
2023-03-27T00:08:41.996Z,999.54
2023-03-27T00:09:41.986Z,999.56
2023-03-27T00:10:41.976Z,999.59
2023-03-27T00:11:41.970Z,999.63
2023-03-27T00:12:41.980Z,999.59
2023-03-27T00:13:49.417Z,999.66
2023-03-27T00:14:42.965Z,999.62
2023-03-27T00:15:41.927Z,999.62
2023-03-27T00:16:41.930Z,999.63
2023-03-27T00:17:41.981Z,999.65
2023-03-27T00:18:41.894Z,999.68
2023-03-27T00:19:41.896Z,999.68
2023-03-27T00:20:41.871Z,999.74
2023-03-27T00:21:41.851Z,999.74
2023-03-27T00:22:41.895Z,999.75
2023-03-27T00:23:41.841Z,999.78
2023-03-27T00:24:41.855Z,999.78
2023-03-27T00:25:41.812Z,999.78
2023-03-27T00:26:41.810Z,999.85
2023-03-27T00:27:41.810Z,999.87
2023-03-27T00:28:41.817Z,999.82
2023-03-27T00:29:41.778Z,999.80
2023-03-27T00:30:41.789Z,999.86
2023-03-27T00:31:41.753Z,999.82
2023-03-27T00:32:41.793Z,999.84
2023-03-27T00:33:41.781Z,999.85
2023-03-27T00:34:41.723Z,999.88
2023-03-27T00:35:41.767Z,999.89
2023-03-27T00:36:41.704Z,999.89
2023-03-27T00:37:41.688Z,999.96
2023-03-27T00:38:41.682Z,999.97
2023-03-27T00:39:41.714Z,999.99
2023-03-27T00:40:41.688Z,999.97
2023-03-27T00:41:41.642Z,1000.00
2023-03-27T00:42:41.627Z,1000.04
2023-03-27T00:43:41.655Z,1000.03
2023-03-27T00:44:41.644Z,1000.05
2023-03-27T00:45:41.630Z,1000.11
2023-03-27T00:46:41.654Z,1000.09
2023-03-27T00:47:41.632Z,1000.14
2023-03-27T00:48:41.598Z,1000.11
2023-03-27T00:49:41.643Z,1000.15
2023-03-27T00:50:41.563Z,1000.12
2023-03-27T00:51:41.577Z,1000.15
2023-03-27T00:52:41.526Z,1000.15
2023-03-27T00:53:41.549Z,1000.15
2023-03-27T00:54:41.500Z,1000.20
2023-03-27T00:55:41.498Z,1000.24
2023-03-27T00:56:41.493Z,1000.24
2023-03-27T00:57:41.507Z,1000.25
2023-03-27T00:58:41.469Z,1000.20
2023-03-27T00:59:41.451Z,1000.19
2023-03-27T01:00:41.445Z,1000.16
2023-03-27T01:01:41.510Z,1000.14
2023-03-27T01:02:41.552Z,1000.19
2023-03-27T01:03:41.556Z,1000.14
2023-03-27T01:04:41.434Z,1000.16
2023-03-27T01:05:41.405Z,1000.18
2023-03-27T01:06:41.378Z,1000.27
2023-03-27T01:07:41.369Z,1000.25
2023-03-27T01:08:42.353Z,1000.26
2023-03-27T01:09:41.348Z,1000.29
2023-03-27T01:10:41.372Z,1000.30
2023-03-27T01:11:41.322Z,1000.30
2023-03-27T01:12:41.314Z,1000.37
2023-03-27T01:13:41.307Z,1000.38
2023-03-27T01:14:41.281Z,1000.41
2023-03-27T01:15:41.305Z,1000.39
2023-03-27T01:16:41.314Z,1000.40
2023-03-27T01:17:41.313Z,1000.38
2023-03-27T01:18:41.265Z,1000.38
2023-03-27T01:19:41.231Z,1000.38
2023-03-27T01:20:41.239Z,1000.37
2023-03-27T01:21:41.236Z,1000.39
2023-03-27T01:22:41.239Z,1000.43
2023-03-27T01:23:59.354Z,1000.48
2023-03-27T01:24:42.194Z,1000.49
2023-03-27T01:25:41.202Z,1000.53
2023-03-27T01:26:41.161Z,1000.54
2023-03-27T01:27:41.144Z,1000.55
2023-03-27T01:28:41.158Z,1000.60
2023-03-27T01:29:41.123Z,1000.60
2023-03-27T01:30:41.112Z,1000.62
2023-03-27T01:31:41.149Z,1000.63
2023-03-27T01:32:41.132Z,1000.67
2023-03-27T01:33:41.118Z,1000.69
2023-03-27T01:34:41.067Z,1000.67
2023-03-27T01:35:41.086Z,1000.67
2023-03-27T01:36:41.093Z,1000.70
2023-03-27T01:37:41.058Z,1000.68
2023-03-27T01:38:41.031Z,1000.70
2023-03-27T01:39:41.027Z,1000.73
2023-03-27T01:40:41.020Z,1000.69
2023-03-27T01:41:41.013Z,1000.75
2023-03-27T01:42:41.034Z,1000.71
2023-03-27T01:43:40.989Z,1000.80
2023-03-27T01:44:44.566Z,1000.79
2023-03-27T01:45:40.965Z,1000.72
2023-03-27T01:46:40.979Z,1000.77
2023-03-27T01:47:41.009Z,1000.83
2023-03-27T01:48:41.037Z,1000.82
2023-03-27T01:49:40.935Z,1000.86
2023-03-27T01:50:40.918Z,1000.87
2023-03-27T01:51:40.892Z,1000.92
2023-03-27T01:52:40.888Z,1000.88
2023-03-27T01:53:41.067Z,1000.93
2023-03-27T01:54:40.870Z,1000.98
2023-03-27T01:55:40.859Z,1000.93
2023-03-27T01:56:40.863Z,1000.97
2023-03-27T01:57:48.938Z,1000.98
2023-03-27T01:58:41.871Z,1000.99
2023-03-27T01:59:40.820Z,1000.95
2023-03-27T02:00:51.480Z,1000.96
2023-03-27T02:01:41.820Z,1001.00
2023-03-27T02:02:40.818Z,1001.03
2023-03-27T02:03:40.768Z,1001.07
2023-03-27T02:04:40.845Z,1001.05
2023-03-27T02:05:40.756Z,1001.07
2023-03-27T02:06:40.742Z,1001.08
2023-03-27T02:07:40.732Z,1001.11
2023-03-27T02:08:40.714Z,1001.06
2023-03-27T02:09:40.724Z,1001.06
2023-03-27T02:10:40.725Z,1001.07
2023-03-27T02:11:40.695Z,1001.09
2023-03-27T02:12:40.679Z,1001.10
2023-03-27T02:13:40.661Z,1001.14
2023-03-27T02:14:40.661Z,1001.10
2023-03-27T02:15:40.671Z,1001.20
2023-03-27T02:16:40.676Z,1001.13
2023-03-27T02:17:40.650Z,1001.11
2023-03-27T02:18:40.606Z,1001.15
2023-03-27T02:19:40.599Z,1001.15
2023-03-27T02:20:40.626Z,1001.19
2023-03-27T02:21:40.580Z,1001.18
2023-03-27T02:22:40.574Z,1001.25
2023-03-27T02:23:40.564Z,1001.25
2023-03-27T02:24:40.587Z,1001.26
2023-03-27T02:25:40.573Z,1001.27
2023-03-27T02:26:40.529Z,1001.28
2023-03-27T02:27:40.516Z,1001.37
2023-03-27T02:28:40.506Z,1001.33
2023-03-27T02:29:40.497Z,1001.38
2023-03-27T02:30:40.519Z,1001.40
2023-03-27T02:31:40.486Z,1001.37
2023-03-27T02:32:40.497Z,1001.51
2023-03-27T02:33:40.455Z,1001.45
2023-03-27T02:34:40.450Z,1001.41
2023-03-27T02:35:40.485Z,1001.45
2023-03-27T02:36:40.461Z,1001.49
2023-03-27T02:37:40.412Z,1001.55
2023-03-27T02:38:40.397Z,1001.52
2023-03-27T02:39:40.398Z,1001.57
2023-03-27T02:40:40.563Z,1001.56
2023-03-27T02:41:40.402Z,1001.59
2023-03-27T02:42:40.394Z,1001.55
2023-03-27T02:43:40.356Z,1001.67
2023-03-27T02:44:47.455Z,1001.69
2023-03-27T02:45:41.359Z,1001.74
2023-03-27T02:46:40.315Z,1001.72
2023-03-27T02:47:40.359Z,1001.70
2023-03-27T02:48:40.312Z,1001.73
2023-03-27T02:49:40.291Z,1001.74
2023-03-27T02:50:40.277Z,1001.82
2023-03-27T02:51:40.287Z,1001.79
2023-03-27T02:52:40.260Z,1001.85
2023-03-27T02:53:40.300Z,1001.85
2023-03-27T02:54:40.249Z,1001.91
2023-03-27T02:55:40.233Z,1001.96
2023-03-27T02:56:40.242Z,1001.95
2023-03-27T02:57:40.262Z,1001.99
2023-03-27T02:58:40.190Z,1002.01
2023-03-27T02:59:40.219Z,1001.99
2023-03-27T03:00:40.187Z,1001.98
2023-03-27T03:01:40.229Z,1002.00
2023-03-27T03:02:40.250Z,1002.01
2023-03-27T03:03:40.191Z,1002.05
2023-03-27T03:04:40.134Z,1002.06
2023-03-27T03:05:40.114Z,1002.06
2023-03-27T03:06:40.140Z,1002.05
2023-03-27T03:07:40.141Z,1002.05
2023-03-27T03:08:40.084Z,1002.02
2023-03-27T03:09:40.607Z,1002.09
2023-03-27T03:10:40.062Z,1002.06
2023-03-27T03:11:40.102Z,1002.11
2023-03-27T03:12:40.075Z,1002.12
2023-03-27T03:13:40.055Z,1002.07
2023-03-27T03:14:40.034Z,1002.14
2023-03-27T03:15:40.021Z,1002.13
2023-03-27T03:16:40.048Z,1002.17
2023-03-27T03:17:40.085Z,1002.18
2023-03-27T03:18:39.980Z,1002.19
2023-03-27T03:19:39.999Z,1002.22
2023-03-27T03:20:39.957Z,1002.27
2023-03-27T03:21:39.943Z,1002.27
2023-03-27T03:22:39.983Z,1002.33
2023-03-27T03:23:39.920Z,1002.33
2023-03-27T03:24:39.912Z,1002.38
2023-03-27T03:25:39.928Z,1002.40
2023-03-27T03:26:39.890Z,1002.48
2023-03-27T03:27:39.882Z,1002.44
2023-03-27T03:28:39.900Z,1002.44
2023-03-27T03:29:40.885Z,1002.47
2023-03-27T03:30:39.884Z,1002.48
2023-03-27T03:31:39.846Z,1002.50
2023-03-27T03:32:39.877Z,1002.51
2023-03-27T03:33:39.817Z,1002.52
2023-03-27T03:34:39.840Z,1002.50
2023-03-27T03:35:39.831Z,1002.57
2023-03-27T03:36:39.781Z,1002.60
2023-03-27T03:37:39.775Z,1002.59
2023-03-27T03:38:39.760Z,1002.62
2023-03-27T03:39:39.759Z,1002.59
2023-03-27T03:40:39.787Z,1002.62
2023-03-27T03:41:39.744Z,1002.64
2023-03-27T03:42:39.760Z,1002.63
2023-03-27T03:43:39.715Z,1002.63
2023-03-27T03:44:39.696Z,1002.67
2023-03-27T03:45:39.761Z,1002.69
2023-03-27T03:46:39.734Z,1002.72
2023-03-27T03:47:39.704Z,1002.72
2023-03-27T03:48:39.684Z,1002.75
2023-03-27T03:49:39.669Z,1002.77
2023-03-27T03:50:39.638Z,1002.79
2023-03-27T03:51:39.630Z,1002.80
2023-03-27T03:52:39.613Z,1002.82
2023-03-27T03:53:39.649Z,1002.80
2023-03-27T03:54:39.628Z,1002.78
2023-03-27T03:55:39.605Z,1002.80
2023-03-27T03:56:39.627Z,1002.83
2023-03-27T03:57:39.555Z,1002.85
2023-03-27T03:58:39.551Z,1002.86
2023-03-27T03:59:39.540Z,1002.92
2023-03-27T04:00:39.526Z,1002.95
2023-03-27T04:01:39.581Z,1002.92
2023-03-27T04:02:39.570Z,1002.93
2023-03-27T04:03:39.651Z,1002.95
2023-03-27T04:04:39.507Z,1002.95
2023-03-27T04:05:39.507Z,1002.91
2023-03-27T04:06:39.490Z,1002.90
2023-03-27T04:07:39.443Z,1002.95
2023-03-27T04:08:39.476Z,1002.98
2023-03-27T04:09:39.426Z,1002.95
2023-03-27T04:10:39.433Z,1002.97
2023-03-27T04:11:39.437Z,1002.94
2023-03-27T04:12:39.388Z,1002.95
2023-03-27T04:13:39.382Z,1002.98
2023-03-27T04:14:39.370Z,1003.02
2023-03-27T04:15:39.400Z,1003.00
2023-03-27T04:16:39.353Z,1003.04
2023-03-27T04:17:39.467Z,1003.08
2023-03-27T04:18:39.516Z,1003.03
2023-03-27T04:19:39.322Z,1003.07
2023-03-27T04:20:39.304Z,1003.07
2023-03-27T04:21:39.296Z,1003.11
2023-03-27T04:22:39.282Z,1003.13
2023-03-27T04:23:39.317Z,1003.12
2023-03-27T04:24:39.268Z,1003.13
2023-03-27T04:25:39.326Z,1003.21
2023-03-27T04:26:39.239Z,1003.20
2023-03-27T04:27:39.278Z,1003.21
2023-03-27T04:28:39.225Z,1003.22
2023-03-27T04:29:39.212Z,1003.27
2023-03-27T04:30:39.209Z,1003.26
2023-03-27T04:31:39.254Z,1003.21
2023-03-27T04:32:39.201Z,1003.29
2023-03-27T04:33:39.262Z,1003.33
2023-03-27T04:34:39.159Z,1003.31
2023-03-27T04:35:39.207Z,1003.28
2023-03-27T04:36:39.143Z,1003.28
2023-03-27T04:37:39.141Z,1003.33
2023-03-27T04:38:39.195Z,1003.31
2023-03-27T04:39:39.160Z,1003.30
2023-03-27T04:40:39.102Z,1003.31
2023-03-27T04:41:39.107Z,1003.36
2023-03-27T04:42:39.086Z,1003.36
2023-03-27T04:43:39.070Z,1003.40
2023-03-27T04:44:39.096Z,1003.42
2023-03-27T04:45:39.046Z,1003.38
2023-03-27T04:46:39.116Z,1003.34
2023-03-27T04:47:39.162Z,1003.35
2023-03-27T04:48:39.417Z,1003.36
2023-03-27T04:49:39.069Z,1003.42
2023-03-27T04:50:39.023Z,1003.41
2023-03-27T04:51:38.987Z,1003.41
2023-03-27T04:52:38.973Z,1003.46
2023-03-27T04:53:39.000Z,1003.47
2023-03-27T04:54:38.948Z,1003.50
2023-03-27T04:55:38.983Z,1003.49
2023-03-27T04:56:38.963Z,1003.55
2023-03-27T04:57:38.923Z,1003.56
2023-03-27T04:58:38.912Z,1003.59
2023-03-27T04:59:38.899Z,1003.60
2023-03-27T05:00:38.914Z,1003.62
2023-03-27T05:01:39.060Z,1003.65
2023-03-27T05:02:38.924Z,1003.67
2023-03-27T05:03:38.953Z,1003.66
2023-03-27T05:04:38.863Z,1003.68
2023-03-27T05:05:38.860Z,1003.68
2023-03-27T05:06:40.559Z,1003.73
2023-03-27T05:07:38.815Z,1003.77
2023-03-27T05:08:38.805Z,1003.81
2023-03-27T05:09:38.794Z,1003.82
2023-03-27T05:10:38.778Z,1003.83
2023-03-27T05:11:38.804Z,1003.82
2023-03-27T05:12:38.780Z,1003.87
2023-03-27T05:13:38.742Z,1003.86
2023-03-27T05:14:38.732Z,1003.83
2023-03-27T05:15:38.733Z,1003.85
2023-03-27T05:16:38.740Z,1003.86
2023-03-27T05:17:38.759Z,1003.86
2023-03-27T05:18:41.975Z,1003.85
2023-03-27T05:19:38.680Z,1003.94
2023-03-27T05:20:38.705Z,1003.94
2023-03-27T05:21:38.682Z,1003.91
2023-03-27T05:22:38.683Z,1003.95
2023-03-27T05:23:38.640Z,1003.94
2023-03-27T05:24:38.631Z,1004.01
2023-03-27T05:25:38.614Z,1004.04
2023-03-27T05:26:38.706Z,1004.03
2023-03-27T05:27:38.869Z,1004.00
2023-03-27T05:28:38.609Z,1004.02
2023-03-27T05:29:46.858Z,1004.05
2023-03-27T05:30:39.619Z,1004.06
2023-03-27T05:31:38.553Z,1004.05
2023-03-27T05:32:38.562Z,1004.10
2023-03-27T05:33:38.566Z,1004.09
2023-03-27T05:34:38.527Z,1004.12
2023-03-27T05:35:38.517Z,1004.10
2023-03-27T05:36:38.504Z,1004.12
2023-03-27T05:37:38.533Z,1004.12
2023-03-27T05:38:38.524Z,1004.16
2023-03-27T05:39:38.469Z,1004.12
2023-03-27T05:40:38.454Z,1004.14
2023-03-27T05:41:38.450Z,1004.19
2023-03-27T05:42:38.434Z,1004.18
2023-03-27T05:43:38.462Z,1004.16
2023-03-27T05:44:38.451Z,1004.24
2023-03-27T05:45:38.420Z,1004.27
2023-03-27T05:46:38.454Z,1004.31
2023-03-27T05:47:38.410Z,1004.33
2023-03-27T05:48:38.421Z,1004.36
2023-03-27T05:49:38.363Z,1004.36
2023-03-27T05:50:38.361Z,1004.35
2023-03-27T05:51:38.336Z,1004.38
2023-03-27T05:52:39.344Z,1004.39
2023-03-27T05:53:38.382Z,1004.39
2023-03-27T05:54:38.340Z,1004.39
2023-03-27T05:55:38.313Z,1004.41
2023-03-27T05:56:38.326Z,1004.43
2023-03-27T05:57:38.284Z,1004.42
2023-03-27T05:58:38.269Z,1004.47
2023-03-27T05:59:38.314Z,1004.53
2023-03-27T06:00:38.283Z,1004.53
2023-03-27T06:01:38.229Z,1004.52
2023-03-27T06:02:38.251Z,1004.56
2023-03-27T06:03:38.508Z,1004.58
2023-03-27T06:04:38.249Z,1004.55
2023-03-27T06:05:38.195Z,1004.56
2023-03-27T06:06:38.215Z,1004.65
2023-03-27T06:07:38.596Z,1004.62
2023-03-27T06:08:38.172Z,1004.66
2023-03-27T06:09:38.177Z,1004.62
2023-03-27T06:10:38.143Z,1004.69
2023-03-27T06:11:38.157Z,1004.68
2023-03-27T06:12:38.142Z,1004.68
2023-03-27T06:13:38.110Z,1004.73
2023-03-27T06:14:38.106Z,1004.81
2023-03-27T06:15:38.127Z,1004.81
2023-03-27T06:16:38.104Z,1004.81
2023-03-27T06:17:38.145Z,1004.84
2023-03-27T06:18:38.074Z,1004.84
2023-03-27T06:19:38.042Z,1004.84
2023-03-27T06:20:38.038Z,1004.91
2023-03-27T06:21:39.421Z,1004.92
2023-03-27T06:22:38.019Z,1004.91
2023-03-27T06:23:38.029Z,1004.89
2023-03-27T06:24:38.039Z,1004.92
2023-03-27T06:25:38.011Z,1004.92
2023-03-27T06:26:38.019Z,1004.90
2023-03-27T06:27:38.046Z,1004.97
2023-03-27T06:28:37.979Z,1005.03
2023-03-27T06:29:37.931Z,1004.99
2023-03-27T06:30:37.929Z,1005.03
2023-03-27T06:31:37.930Z,1005.08
2023-03-27T06:32:37.915Z,1005.01
2023-03-27T06:33:37.921Z,1005.05
2023-03-27T06:34:37.924Z,1005.04
2023-03-27T06:35:37.932Z,1005.04
2023-03-27T06:36:37.866Z,1005.05
2023-03-27T06:37:37.847Z,1005.03
2023-03-27T06:38:37.875Z,1005.06
2023-03-27T06:39:37.834Z,1005.09
2023-03-27T06:40:37.819Z,1005.08
2023-03-27T06:41:37.823Z,1005.10
2023-03-27T06:42:37.797Z,1005.14
2023-03-27T06:43:37.779Z,1005.14
2023-03-27T06:44:37.803Z,1005.15
2023-03-27T06:45:37.776Z,1005.17
2023-03-27T06:46:45.052Z,1005.19
2023-03-27T06:47:48.129Z,1005.22
2023-03-27T06:48:38.748Z,1005.25
2023-03-27T06:49:37.748Z,1005.31
2023-03-27T06:50:37.712Z,1005.25
2023-03-27T06:51:37.702Z,1005.29
2023-03-27T06:52:37.695Z,1005.33
2023-03-27T06:53:38.324Z,1005.31
2023-03-27T06:54:37.723Z,1005.33
2023-03-27T06:55:37.657Z,1005.36
2023-03-27T06:56:37.696Z,1005.45
2023-03-27T06:57:37.653Z,1005.44
2023-03-27T06:58:37.626Z,1005.36
2023-03-27T06:59:37.768Z,1005.43
2023-03-27T07:00:37.633Z,1005.45
2023-03-27T07:01:37.617Z,1005.45
2023-03-27T07:02:37.634Z,1005.45
2023-03-27T07:03:37.571Z,1005.50
2023-03-27T07:04:37.563Z,1005.47
2023-03-27T07:05:37.684Z,1005.47
2023-03-27T07:06:39.644Z,1005.51
2023-03-27T07:07:40.347Z,1005.45
2023-03-27T07:08:37.512Z,1005.48
2023-03-27T07:09:39.938Z,1005.49
2023-03-27T07:10:37.887Z,1005.51
2023-03-27T07:11:37.746Z,1005.49
2023-03-27T07:12:37.550Z,1005.49
2023-03-27T07:13:37.628Z,1005.46
2023-03-27T07:14:37.625Z,1005.56
2023-03-27T07:15:37.548Z,1005.54
2023-03-27T07:16:37.473Z,1005.58
2023-03-27T07:17:48.217Z,1005.55
2023-03-27T07:18:38.408Z,1005.57
2023-03-27T07:19:37.396Z,1005.59
2023-03-27T07:20:37.394Z,1005.60
2023-03-27T07:21:37.400Z,1005.62
2023-03-27T07:22:37.362Z,1005.60
2023-03-27T07:23:37.461Z,1005.55
2023-03-27T07:24:37.345Z,1005.65
2023-03-27T07:25:37.338Z,1005.64
2023-03-27T07:26:37.365Z,1005.55
2023-03-27T07:27:37.312Z,1005.63
2023-03-27T07:28:37.294Z,1005.56
2023-03-27T07:29:37.349Z,1005.64
2023-03-27T07:30:37.282Z,1005.63
2023-03-27T07:32:38.092Z,1005.65
2023-03-27T07:33:37.313Z,1005.63
2023-03-27T07:34:37.234Z,1005.59
2023-03-27T07:35:37.255Z,1005.63
2023-03-27T07:36:37.212Z,1005.66
2023-03-27T07:37:38.141Z,1005.70
2023-03-27T07:38:37.193Z,1005.65
2023-03-27T07:39:37.189Z,1005.65
2023-03-27T07:40:40.015Z,1005.77
2023-03-27T07:41:37.172Z,1005.74
2023-03-27T07:42:37.180Z,1005.76
2023-03-27T07:43:37.181Z,1005.73
2023-03-27T07:44:37.229Z,1005.75
2023-03-27T07:45:37.173Z,1005.75
2023-03-27T07:46:37.111Z,1005.78
2023-03-27T07:47:37.158Z,1005.73
2023-03-27T07:48:37.127Z,1005.78
2023-03-27T07:49:39.228Z,1005.72
2023-03-27T07:50:37.067Z,1005.81
2023-03-27T07:51:37.059Z,1005.83
2023-03-27T07:52:37.048Z,1005.82
2023-03-27T07:53:37.074Z,1005.84
2023-03-27T07:54:37.055Z,1005.79
2023-03-27T07:55:37.009Z,1005.82
2023-03-27T07:56:37.026Z,1005.81
2023-03-27T07:57:46.033Z,1005.75
2023-03-27T07:58:38.091Z,1005.72
2023-03-27T07:59:37.147Z,1005.77
2023-03-27T08:00:36.984Z,1005.74
2023-03-27T08:01:36.974Z,1005.74
2023-03-27T08:02:36.944Z,1005.75
2023-03-27T08:03:37.079Z,1005.77
2023-03-27T08:04:37.088Z,1005.75
2023-03-27T08:05:36.901Z,1005.75
2023-03-27T08:06:36.913Z,1005.74
2023-03-27T08:07:36.892Z,1005.70
2023-03-27T08:08:36.877Z,1005.79
2023-03-27T08:09:36.858Z,1005.83
2023-03-27T08:10:36.885Z,1005.78
2023-03-27T08:11:36.836Z,1005.76
2023-03-27T08:12:36.832Z,1005.76
2023-03-27T08:13:36.897Z,1005.80
2023-03-27T08:14:36.801Z,1005.72
2023-03-27T08:15:36.802Z,1005.79
2023-03-27T08:16:45.449Z,1005.76
2023-03-27T08:17:36.976Z,1005.81
2023-03-27T08:18:36.762Z,1005.84
2023-03-27T08:19:36.755Z,1005.76
2023-03-27T08:20:36.758Z,1005.81
2023-03-27T08:21:36.724Z,1005.88
2023-03-27T08:22:36.719Z,1005.89
2023-03-27T08:23:36.700Z,1005.89
2023-03-27T08:24:36.708Z,1005.86
2023-03-27T08:25:36.684Z,1005.82
2023-03-27T08:26:36.717Z,1005.87
2023-03-27T08:27:36.696Z,1005.91
2023-03-27T08:28:36.662Z,1005.89
2023-03-27T08:29:36.639Z,1005.93
2023-03-27T08:30:36.671Z,1005.99
2023-03-27T08:31:36.657Z,1005.98
2023-03-27T08:32:36.641Z,1005.98
2023-03-27T08:33:36.614Z,1005.98
2023-03-27T08:34:36.588Z,1005.96
2023-03-27T08:35:36.781Z,1005.94
2023-03-27T08:36:36.585Z,1005.97
2023-03-27T08:37:36.556Z,1005.98
2023-03-27T08:38:36.537Z,1005.87
2023-03-27T08:39:36.544Z,1006.02
2023-03-27T08:40:36.567Z,1006.06
2023-03-27T08:41:36.520Z,1006.03
2023-03-27T08:42:36.511Z,1006.04
2023-03-27T08:43:36.508Z,1006.05
2023-03-27T08:44:36.488Z,1006.04
2023-03-27T08:45:36.473Z,1006.05
2023-03-27T08:46:36.506Z,1006.06
2023-03-27T08:47:36.508Z,1006.10
2023-03-27T08:48:36.464Z,1006.11
2023-03-27T08:49:36.430Z,1006.14
2023-03-27T08:50:36.430Z,1006.16
2023-03-27T08:51:36.407Z,1006.09
2023-03-27T08:52:36.490Z,1006.21
2023-03-27T08:53:37.368Z,1006.17
2023-03-27T08:54:36.397Z,1006.19
2023-03-27T08:55:36.366Z,1006.27
2023-03-27T08:56:36.381Z,1006.27
2023-03-27T08:57:36.365Z,1006.32
2023-03-27T08:58:36.447Z,1006.25
2023-03-27T08:59:36.315Z,1006.24
2023-03-27T09:00:36.314Z,1006.24
2023-03-27T09:01:36.362Z,1006.26
2023-03-27T09:02:36.374Z,1006.59
2023-03-27T09:03:36.464Z,1006.30
2023-03-27T09:04:37.670Z,1006.29
2023-03-27T09:05:36.251Z,1006.31
2023-03-27T09:06:36.256Z,1006.33
2023-03-27T09:07:36.227Z,1006.28
2023-03-27T09:08:36.224Z,1006.33
2023-03-27T09:09:36.245Z,1006.33
2023-03-27T09:10:36.223Z,1006.35
2023-03-27T09:11:36.188Z,1006.39
2023-03-27T09:12:36.186Z,1006.85
2023-03-27T09:13:36.166Z,1006.84
2023-03-27T09:14:36.192Z,1006.64
2023-03-27T09:15:36.141Z,1006.55
2023-03-27T09:16:36.238Z,1006.65
2023-03-27T09:17:36.172Z,1006.68
2023-03-27T09:18:36.951Z,1006.37
2023-03-27T09:19:36.106Z,1006.42
2023-03-27T09:20:36.145Z,1006.88
2023-03-27T09:21:36.113Z,1006.75
2023-03-27T09:22:36.063Z,1006.90
2023-03-27T09:23:36.059Z,1006.93
2023-03-27T09:24:36.044Z,1006.93
2023-03-27T09:25:36.042Z,1006.88
2023-03-27T09:26:36.118Z,1006.86
2023-03-27T09:27:36.025Z,1006.39
2023-03-27T09:28:36.023Z,1006.84
2023-03-27T09:29:36.038Z,1006.88
2023-03-27T09:30:35.984Z,1006.93
2023-03-27T09:31:36.033Z,1006.86
2023-03-27T09:32:35.991Z,1006.65
2023-03-27T09:33:35.947Z,1006.91
2023-03-27T09:34:35.976Z,1006.49
2023-03-27T09:35:35.939Z,1006.96
2023-03-27T09:36:35.950Z,1006.96
2023-03-27T09:37:37.055Z,1007.04
2023-03-27T09:38:35.934Z,1007.09
2023-03-27T09:39:35.898Z,1007.04
2023-03-27T09:40:35.890Z,1007.03
2023-03-27T09:41:35.879Z,1007.18
2023-03-27T09:42:35.899Z,1007.18
2023-03-27T09:43:35.854Z,1007.17
2023-03-27T09:44:35.835Z,1007.20
2023-03-27T09:45:35.835Z,1006.58
2023-03-27T09:46:35.886Z,1006.55
2023-03-27T09:47:35.850Z,1007.13
2023-03-27T09:48:35.839Z,1006.60
2023-03-27T09:49:35.813Z,1007.16
2023-03-27T09:50:35.822Z,1006.71
2023-03-27T09:51:35.779Z,1007.19
2023-03-27T09:52:35.779Z,1007.20
2023-03-27T09:53:35.769Z,1007.20
2023-03-27T09:54:35.782Z,1006.73
2023-03-27T09:55:35.737Z,1007.08
2023-03-27T09:56:35.765Z,1007.22
2023-03-27T09:57:35.727Z,1006.74
2023-03-27T09:58:35.717Z,1006.68
2023-03-27T09:59:35.719Z,1006.70
2023-03-27T10:00:35.774Z,1006.64
2023-03-27T10:01:35.945Z,1006.66
2023-03-27T10:02:35.689Z,1006.59
2023-03-27T10:03:35.701Z,1006.61
2023-03-27T10:04:35.683Z,1006.70
2023-03-27T10:05:35.647Z,1006.67
2023-03-27T10:06:35.617Z,1006.75
2023-03-27T10:07:35.614Z,1006.65
2023-03-27T10:08:35.613Z,1006.71
2023-03-27T10:09:35.597Z,1006.96
2023-03-27T10:10:35.605Z,1007.17
2023-03-27T10:11:35.576Z,1007.28
2023-03-27T10:12:35.554Z,1007.21
2023-03-27T10:13:35.592Z,1007.22
2023-03-27T10:14:35.546Z,1007.08
2023-03-27T10:15:35.558Z,1006.69
2023-03-27T10:16:35.538Z,1006.71
2023-03-27T10:17:35.593Z,1007.20
2023-03-27T10:18:35.491Z,1007.22
2023-03-27T10:19:35.499Z,1006.75
2023-03-27T10:20:35.485Z,1006.76
2023-03-27T10:21:35.456Z,1006.69
2023-03-27T10:22:35.507Z,1006.84
2023-03-27T10:23:35.470Z,1006.78
2023-03-27T10:24:35.445Z,1006.81
2023-03-27T10:25:35.415Z,1006.84
2023-03-27T10:26:35.413Z,1006.81
2023-03-27T10:27:35.432Z,1006.83
2023-03-27T10:28:35.386Z,1006.85
2023-03-27T10:29:35.368Z,1006.98
2023-03-27T10:30:35.364Z,1006.97
2023-03-27T10:31:35.407Z,1006.93
2023-03-27T10:32:35.369Z,1006.89
2023-03-27T10:33:35.334Z,1006.92
2023-03-27T10:34:35.319Z,1006.90
2023-03-27T10:35:36.713Z,1006.90
2023-03-27T10:36:35.343Z,1006.89
2023-03-27T10:37:35.291Z,1006.92
2023-03-27T10:38:35.304Z,1006.91
2023-03-27T10:39:35.312Z,1006.84
2023-03-27T10:40:35.277Z,1006.88
2023-03-27T10:41:35.237Z,1006.96
2023-03-27T10:42:35.234Z,1006.99
2023-03-27T10:43:35.234Z,1007.01
2023-03-27T10:44:35.252Z,1006.99
2023-03-27T10:45:35.233Z,1007.03
2023-03-27T10:46:35.262Z,1007.07
2023-03-27T10:47:35.242Z,1007.01
2023-03-27T10:48:35.166Z,1007.05
2023-03-27T10:49:35.159Z,1007.04
2023-03-27T10:50:35.177Z,1007.03
2023-03-27T10:51:45.422Z,1007.04
2023-03-27T10:52:36.128Z,1007.11
2023-03-27T10:53:35.315Z,1007.16
2023-03-27T10:54:35.158Z,1007.07
2023-03-27T10:55:35.126Z,1007.09
2023-03-27T10:56:35.119Z,1007.07
2023-03-27T10:57:35.083Z,1007.06
2023-03-27T10:58:35.068Z,1007.15
2023-03-27T10:59:41.425Z,1007.09
2023-03-27T11:00:36.556Z,1007.07
2023-03-27T11:01:35.042Z,1007.13
2023-03-27T11:02:35.129Z,1007.17
2023-03-27T11:03:35.057Z,1007.11
2023-03-27T11:04:35.026Z,1007.14
2023-03-27T11:05:35.082Z,1007.13
2023-03-27T11:06:34.982Z,1007.06
2023-03-27T11:07:34.963Z,1007.12
2023-03-27T11:08:34.981Z,1007.16
2023-03-27T11:09:34.929Z,1007.11
2023-03-27T11:10:34.954Z,1007.14
2023-03-27T11:11:34.917Z,1007.05
2023-03-27T11:12:34.947Z,1007.10
2023-03-27T11:13:34.975Z,1007.19
2023-03-27T11:14:34.880Z,1007.16
2023-03-27T11:15:34.903Z,1007.20
2023-03-27T11:16:34.920Z,1007.22
2023-03-27T11:17:34.905Z,1007.14
2023-03-27T11:18:34.838Z,1007.16
2023-03-27T11:19:34.860Z,1007.17
2023-03-27T11:20:34.852Z,1007.09
2023-03-27T11:21:34.805Z,1007.03
2023-03-27T11:22:34.795Z,1007.03
2023-03-27T11:23:34.793Z,1007.05
2023-03-27T11:24:34.766Z,1007.12
2023-03-27T11:25:34.758Z,1007.09
2023-03-27T11:26:34.778Z,1007.06
2023-03-27T11:27:34.742Z,1007.00
2023-03-27T11:28:34.792Z,1007.01
2023-03-27T11:29:34.718Z,1007.02
2023-03-27T11:30:34.709Z,1007.06
2023-03-27T11:31:34.766Z,1007.07
2023-03-27T11:32:34.706Z,1007.10
2023-03-27T11:33:34.670Z,1007.08
2023-03-27T11:34:34.724Z,1007.06
2023-03-27T11:35:34.703Z,1007.06
2023-03-27T11:36:34.689Z,1007.08
2023-03-27T11:37:34.659Z,1007.08
2023-03-27T11:38:34.643Z,1007.16
2023-03-27T11:39:34.612Z,1007.14
2023-03-27T11:40:34.607Z,1007.13
2023-03-27T11:41:34.623Z,1007.17
2023-03-27T11:42:34.624Z,1007.14
2023-03-27T11:43:34.590Z,1007.17
2023-03-27T11:44:34.585Z,1007.16
2023-03-27T11:45:34.553Z,1007.21
2023-03-27T11:46:34.614Z,1007.16
2023-03-27T11:47:34.664Z,1007.28
2023-03-27T11:48:34.541Z,1007.18
2023-03-27T11:49:34.524Z,1007.15
2023-03-27T11:50:34.535Z,1007.15
2023-03-27T11:51:34.492Z,1007.20
2023-03-27T11:52:34.471Z,1007.18
2023-03-27T11:53:34.507Z,1007.22
2023-03-27T11:54:34.458Z,1007.14
2023-03-27T11:55:34.464Z,1007.07
2023-03-27T11:56:34.456Z,1007.10
2023-03-27T11:57:34.424Z,1007.04
2023-03-27T11:58:34.413Z,1007.11
2023-03-27T11:59:34.388Z,1007.12
2023-03-27T12:00:34.416Z,1007.13
2023-03-27T12:01:34.415Z,1007.12
2023-03-27T12:02:34.521Z,1007.09
2023-03-27T12:03:34.436Z,1007.14
2023-03-27T12:04:34.362Z,1007.11
2023-03-27T12:05:34.326Z,1007.07
2023-03-27T12:06:34.332Z,1007.16
2023-03-27T12:07:37.087Z,1007.17
2023-03-27T12:08:34.310Z,1007.09